createdAt,value
2018-08-17T00:02:01.770Z,24.06
2018-08-17T00:04:28.176Z,24.05
2018-08-17T00:06:54.511Z,23.98
2018-08-17T00:09:20.827Z,24.03
2018-08-17T00:11:47.134Z,24.10
2018-08-17T00:14:13.451Z,24.14
2018-08-17T00:16:39.759Z,24.17
2018-08-17T00:19:06.074Z,24.17
2018-08-17T00:21:32.395Z,24.14
2018-08-17T00:23:58.704Z,24.06
2018-08-17T00:26:25.024Z,24.05
2018-08-17T00:28:51.341Z,24.03
2018-08-17T00:31:17.653Z,23.97
2018-08-17T00:33:43.964Z,23.95
2018-08-17T00:36:10.267Z,23.94
2018-08-17T00:38:36.597Z,23.85
2018-08-17T00:41:02.905Z,23.86
2018-08-17T00:43:29.212Z,23.83
2018-08-17T00:45:55.521Z,23.78
2018-08-17T00:48:21.842Z,23.74
2018-08-17T00:50:48.154Z,23.71
2018-08-17T00:53:14.462Z,23.74
2018-08-17T00:55:40.767Z,23.72
2018-08-17T00:58:07.082Z,23.74
2018-08-17T01:00:33.387Z,23.65
2018-08-17T01:02:59.700Z,23.52
2018-08-17T01:05:26.030Z,23.56
2018-08-17T01:07:52.345Z,23.59
2018-08-17T01:10:18.651Z,23.64
2018-08-17T01:12:44.976Z,23.60
2018-08-17T01:15:11.284Z,23.54
2018-08-17T01:17:37.597Z,23.56
2018-08-17T01:20:03.907Z,23.60
2018-08-17T01:22:30.226Z,23.56
2018-08-17T01:24:56.537Z,23.50
2018-08-17T01:27:22.849Z,23.51
2018-08-17T01:29:49.157Z,23.50
2018-08-17T01:32:15.520Z,23.44
2018-08-17T01:34:41.826Z,23.47
2018-08-17T01:37:08.126Z,23.48
2018-08-17T01:39:34.435Z,23.45
2018-08-17T01:42:00.748Z,23.44
2018-08-17T01:44:27.062Z,23.41
2018-08-17T01:46:53.371Z,23.35
2018-08-17T01:49:19.680Z,23.31
2018-08-17T01:51:45.986Z,23.29
2018-08-17T01:54:12.294Z,23.19
2018-08-17T01:56:38.641Z,23.21
2018-08-17T01:59:04.947Z,23.23
2018-08-17T02:01:31.259Z,23.29
2018-08-17T02:03:57.563Z,23.32
2018-08-17T02:06:23.873Z,23.36
2018-08-17T02:08:50.220Z,23.32
2018-08-17T02:11:16.530Z,23.32
2018-08-17T02:13:42.835Z,23.38
2018-08-17T02:16:09.153Z,23.40
2018-08-17T02:18:35.464Z,23.43
2018-08-17T02:21:01.813Z,23.47
2018-08-17T02:23:28.129Z,23.48
2018-08-17T02:25:54.443Z,23.42
2018-08-17T02:28:20.799Z,23.40
2018-08-17T02:30:47.111Z,23.42
2018-08-17T02:33:13.432Z,23.41
2018-08-17T02:35:39.745Z,23.39
2018-08-17T02:38:06.055Z,23.44
2018-08-17T02:40:32.369Z,23.45
2018-08-17T02:42:58.680Z,23.48
2018-08-17T02:45:24.995Z,23.47
2018-08-17T02:47:51.315Z,23.41
2018-08-17T02:50:17.620Z,23.39
2018-08-17T02:52:43.934Z,23.39
2018-08-17T02:55:10.239Z,23.34
2018-08-17T02:57:36.557Z,23.35
2018-08-17T03:00:02.869Z,23.29
2018-08-17T03:02:29.182Z,23.31
2018-08-17T03:04:55.498Z,23.24
2018-08-17T03:07:21.812Z,23.20
2018-08-17T03:09:48.132Z,23.21
2018-08-17T03:12:14.446Z,23.21
2018-08-17T03:14:40.810Z,23.20
2018-08-17T03:17:07.115Z,23.17
2018-08-17T03:19:33.422Z,23.17
2018-08-17T03:21:59.738Z,23.17
2018-08-17T03:24:26.050Z,23.14
2018-08-17T03:26:52.368Z,23.12
2018-08-17T03:29:18.677Z,23.15
2018-08-17T03:31:44.988Z,23.15
2018-08-17T03:34:11.292Z,23.20
2018-08-17T03:36:37.606Z,23.21
2018-08-17T03:39:03.920Z,23.19
2018-08-17T03:41:30.228Z,23.17
2018-08-17T03:43:56.541Z,23.18
2018-08-17T03:46:22.889Z,23.11
2018-08-17T03:48:49.209Z,23.10
2018-08-17T03:51:15.562Z,23.10
2018-08-17T03:53:41.888Z,23.08
2018-08-17T03:56:08.194Z,23.06
2018-08-17T03:58:34.505Z,23.01
2018-08-17T04:01:00.808Z,23.01
2018-08-17T04:03:27.129Z,23.00
2018-08-17T04:05:53.436Z,23.01
2018-08-17T04:08:19.754Z,23.03
2018-08-17T04:10:46.063Z,23.02
2018-08-17T04:13:12.371Z,23.07
2018-08-17T04:15:38.687Z,23.09
2018-08-17T04:18:05.030Z,23.07
2018-08-17T04:20:31.348Z,23.04
2018-08-17T04:22:57.659Z,23.00
2018-08-17T04:25:23.968Z,23.02
2018-08-17T04:27:50.275Z,23.04
2018-08-17T04:30:16.585Z,23.05
2018-08-17T04:32:42.890Z,23.04
2018-08-17T04:35:09.204Z,23.01
2018-08-17T04:37:35.519Z,23.02
2018-08-17T04:40:01.830Z,23.03
2018-08-17T04:42:28.184Z,23.10
2018-08-17T04:44:54.496Z,23.33
2018-08-17T04:47:20.847Z,23.51
2018-08-17T04:49:47.160Z,23.51
2018-08-17T04:52:13.475Z,23.39
2018-08-17T04:54:39.779Z,23.46
2018-08-17T04:57:06.086Z,23.57
2018-08-17T04:59:32.397Z,23.69
2018-08-17T05:01:58.707Z,23.80
2018-08-17T05:04:25.035Z,23.89
2018-08-17T05:06:51.323Z,23.95
2018-08-17T05:09:17.642Z,23.90
2018-08-17T05:11:43.952Z,23.67
2018-08-17T05:14:10.264Z,23.47
2018-08-17T05:16:36.573Z,23.39
2018-08-17T05:19:02.885Z,23.30
2018-08-17T05:21:29.253Z,23.26
2018-08-17T05:23:55.552Z,23.24
2018-08-17T05:26:21.869Z,23.23
2018-08-17T05:28:48.171Z,23.21
2018-08-17T05:31:14.483Z,23.22
2018-08-17T05:33:40.797Z,23.23
2018-08-17T05:36:07.128Z,23.27
2018-08-17T05:38:33.466Z,23.32
2018-08-17T05:40:59.780Z,23.36
2018-08-17T05:43:26.083Z,23.44
2018-08-17T05:45:52.400Z,23.52
2018-08-17T05:48:18.712Z,23.53
2018-08-17T05:50:45.029Z,23.58
2018-08-17T05:53:11.336Z,23.63
2018-08-17T05:55:37.649Z,23.66
2018-08-17T05:58:03.957Z,23.66
2018-08-17T06:00:30.259Z,23.71
2018-08-17T06:02:56.645Z,23.75
2018-08-17T06:05:22.886Z,23.78
2018-08-17T06:07:49.197Z,23.81
2018-08-17T06:10:15.508Z,23.81
2018-08-17T06:12:41.820Z,23.80
2018-08-17T06:15:08.132Z,23.84
2018-08-17T06:17:34.445Z,23.88
2018-08-17T06:20:00.757Z,23.93
2018-08-17T06:22:27.096Z,23.98
2018-08-17T06:24:53.405Z,24.00
2018-08-17T06:27:19.729Z,24.02
2018-08-17T06:29:46.041Z,24.04
2018-08-17T06:32:12.359Z,24.08
2018-08-17T06:34:38.668Z,24.23
2018-08-17T06:37:05.006Z,24.44
2018-08-17T06:39:31.303Z,24.69
2018-08-17T06:41:57.616Z,24.86
2018-08-17T06:44:23.923Z,24.93
2018-08-17T06:46:50.279Z,24.90
2018-08-17T06:49:16.584Z,24.85
2018-08-17T06:51:42.942Z,24.92
2018-08-17T06:54:09.257Z,25.14
2018-08-17T06:56:35.563Z,25.42
2018-08-17T06:59:01.875Z,25.66
2018-08-17T07:01:28.191Z,25.78
2018-08-17T07:03:54.503Z,25.93
2018-08-17T07:06:20.817Z,26.12
2018-08-17T07:08:47.148Z,26.23
2018-08-17T07:11:13.430Z,26.35
2018-08-17T07:13:39.746Z,26.52
2018-08-17T07:16:06.059Z,26.62
2018-08-17T07:18:32.367Z,26.75
2018-08-17T07:20:58.679Z,26.86
2018-08-17T07:23:24.982Z,26.93
2018-08-17T07:25:51.292Z,26.95
2018-08-17T07:28:17.644Z,27.08
2018-08-17T07:30:43.902Z,27.19
2018-08-17T07:33:10.219Z,27.30
2018-08-17T07:35:36.571Z,27.41
2018-08-17T07:38:02.881Z,27.55
2018-08-17T07:40:29.184Z,27.66
2018-08-17T07:42:55.509Z,27.67
2018-08-17T07:45:21.816Z,27.73
2018-08-17T07:47:48.184Z,27.79
2018-08-17T07:50:14.450Z,27.93
2018-08-17T07:52:40.765Z,28.07
2018-08-17T07:55:07.077Z,28.15
2018-08-17T07:57:33.400Z,28.20
2018-08-17T07:59:59.739Z,28.19
2018-08-17T08:02:26.049Z,28.22
2018-08-17T08:04:52.410Z,28.35
2018-08-17T08:07:18.722Z,28.50
2018-08-17T08:09:45.039Z,28.60
2018-08-17T08:12:11.348Z,28.74
2018-08-17T08:14:37.666Z,28.88
2018-08-17T08:17:03.969Z,28.95
2018-08-17T08:19:30.292Z,28.98
2018-08-17T08:21:56.602Z,29.08
2018-08-17T08:24:22.916Z,29.16
2018-08-17T08:26:49.225Z,29.21
2018-08-17T08:29:15.531Z,29.26
2018-08-17T08:31:41.844Z,29.31
2018-08-17T08:34:08.155Z,29.32
2018-08-17T08:36:34.464Z,29.32
2018-08-17T08:39:00.783Z,29.45
2018-08-17T08:41:27.093Z,29.48
2018-08-17T08:43:53.403Z,29.47
2018-08-17T08:46:19.718Z,29.48
2018-08-17T08:48:46.113Z,29.57
2018-08-17T08:51:12.383Z,29.64
2018-08-17T08:53:38.693Z,29.73
2018-08-17T08:56:05.045Z,29.71
2018-08-17T08:58:31.307Z,29.78
2018-08-17T09:00:57.624Z,29.85
2018-08-17T09:03:23.942Z,29.99
2018-08-17T09:05:50.253Z,30.06
2018-08-17T09:08:16.648Z,30.16
2018-08-17T09:10:42.869Z,30.26
2018-08-17T09:13:09.175Z,30.40
2018-08-17T09:15:35.484Z,30.50
2018-08-17T09:18:01.792Z,30.60
2018-08-17T09:20:28.202Z,30.73
2018-08-17T09:22:54.412Z,30.78
2018-08-17T09:25:20.724Z,30.80
2018-08-17T09:27:47.037Z,30.84
2018-08-17T09:30:13.497Z,30.95
2018-08-17T09:32:39.656Z,30.96
2018-08-17T09:35:05.974Z,30.96
2018-08-17T09:37:32.288Z,30.99
2018-08-17T09:39:58.595Z,31.05
2018-08-17T09:42:24.906Z,31.10
2018-08-17T09:44:51.251Z,31.11
2018-08-17T09:47:17.561Z,31.14
2018-08-17T09:49:43.868Z,31.13
2018-08-17T09:52:10.245Z,31.21
2018-08-17T09:54:36.547Z,31.28
2018-08-17T09:57:02.855Z,31.35
2018-08-17T09:59:29.165Z,31.39
2018-08-17T10:01:55.484Z,31.42
2018-08-17T10:04:21.834Z,31.44
2018-08-17T10:06:48.145Z,31.47
2018-08-17T10:09:14.493Z,31.49
2018-08-17T10:11:40.806Z,31.50
2018-08-17T10:14:07.157Z,31.53
2018-08-17T10:16:33.472Z,31.57
2018-08-17T10:18:59.824Z,31.64
2018-08-17T10:21:26.454Z,31.75
2018-08-17T10:23:52.447Z,31.81
2018-08-17T10:26:18.763Z,31.85
2018-08-17T10:28:45.073Z,31.86
2018-08-17T10:31:11.391Z,31.88
2018-08-17T10:33:37.696Z,31.93
2018-08-17T10:36:04.014Z,31.84
2018-08-17T10:38:30.323Z,31.63
2018-08-17T10:40:56.672Z,31.41
2018-08-17T10:43:22.977Z,31.22
2018-08-17T10:45:49.289Z,31.07
2018-08-17T10:48:15.600Z,30.95
2018-08-17T10:50:41.913Z,30.82
2018-08-17T10:53:08.228Z,30.69
2018-08-17T10:55:34.564Z,30.55
2018-08-17T10:58:00.840Z,30.45
2018-08-17T11:00:27.187Z,30.38
2018-08-17T11:02:53.500Z,30.32
2018-08-17T11:05:19.846Z,30.25
2018-08-17T11:07:46.151Z,30.21
2018-08-17T11:10:12.468Z,30.13
2018-08-17T11:12:38.778Z,30.04
2018-08-17T11:15:05.088Z,29.98
2018-08-17T11:17:31.398Z,29.95
2018-08-17T11:19:57.743Z,29.94
2018-08-17T11:22:24.063Z,29.92
2018-08-17T11:24:50.371Z,29.92
2018-08-17T11:27:16.683Z,29.85
2018-08-17T11:29:43.031Z,29.85
2018-08-17T11:32:09.368Z,29.83
2018-08-17T11:34:35.673Z,29.84
2018-08-17T11:37:01.985Z,29.80
2018-08-17T11:39:28.294Z,29.79
2018-08-17T11:41:54.611Z,29.72
2018-08-17T11:44:20.975Z,29.66
2018-08-17T11:46:47.288Z,29.67
2018-08-17T11:49:13.610Z,29.63
2018-08-17T11:51:39.921Z,29.61
2018-08-17T11:54:06.273Z,29.61
2018-08-17T11:56:32.588Z,29.59
2018-08-17T11:58:58.895Z,29.58
2018-08-17T12:01:25.209Z,29.59
2018-08-17T12:03:51.523Z,29.60
2018-08-17T12:06:17.837Z,29.62
2018-08-17T12:08:44.205Z,29.64
2018-08-17T12:11:10.507Z,29.74
2018-08-17T12:13:36.860Z,29.85
2018-08-17T12:16:03.169Z,29.97
2018-08-17T12:18:29.536Z,30.02
2018-08-17T12:20:55.844Z,30.01
2018-08-17T12:23:22.152Z,29.99
2018-08-17T12:25:48.502Z,29.96
2018-08-17T12:28:14.815Z,29.93
2018-08-17T12:30:41.124Z,29.96
2018-08-17T12:33:07.447Z,30.06
2018-08-17T12:35:33.799Z,30.17
2018-08-17T12:38:00.113Z,30.18
2018-08-17T12:40:26.431Z,30.14
2018-08-17T12:42:52.778Z,30.09
2018-08-17T12:45:19.089Z,30.05
2018-08-17T12:47:45.407Z,30.03
2018-08-17T12:50:11.730Z,30.02
2018-08-17T12:52:38.057Z,29.99
2018-08-17T12:55:04.370Z,30.00
2018-08-17T12:57:30.743Z,30.07
2018-08-17T12:59:57.066Z,30.12
2018-08-17T13:02:23.377Z,30.15
2018-08-17T13:04:49.687Z,30.16
2018-08-17T13:07:15.997Z,30.11
2018-08-17T13:09:42.349Z,30.05
2018-08-17T13:12:08.663Z,29.85
2018-08-17T13:14:34.988Z,29.61
2018-08-17T13:17:01.294Z,29.36
2018-08-17T13:19:27.609Z,29.17
2018-08-17T13:21:53.932Z,29.00
2018-08-17T13:24:20.248Z,28.89
2018-08-17T13:26:46.568Z,28.84
2018-08-17T13:29:12.910Z,28.72
2018-08-17T13:31:39.225Z,28.60
2018-08-17T13:34:05.542Z,28.57
2018-08-17T13:36:31.856Z,28.52
2018-08-17T13:38:58.161Z,28.56
2018-08-17T13:41:24.477Z,28.57
2018-08-17T13:43:50.791Z,28.48
2018-08-17T13:46:17.135Z,28.32
2018-08-17T13:48:43.452Z,28.13
2018-08-17T13:51:09.779Z,27.90
2018-08-17T13:53:36.116Z,27.65
2018-08-17T13:56:02.440Z,27.37
2018-08-17T13:58:28.746Z,27.12
2018-08-17T14:00:55.060Z,27.23
2018-08-17T14:03:21.369Z,27.27
2018-08-17T14:05:47.686Z,27.32
2018-08-17T14:08:14.036Z,27.21
2018-08-17T14:10:40.323Z,27.31
2018-08-17T14:13:06.633Z,27.34
2018-08-17T14:15:32.966Z,27.48
2018-08-17T14:17:59.272Z,27.61
2018-08-17T14:20:25.595Z,27.63
2018-08-17T14:22:51.904Z,27.60
2018-08-17T14:25:18.226Z,27.53
2018-08-17T14:27:44.549Z,27.47
2018-08-17T14:30:10.914Z,27.46
2018-08-17T14:32:37.221Z,27.50
2018-08-17T14:35:03.588Z,27.50
2018-08-17T14:37:29.864Z,27.43
2018-08-17T14:39:56.176Z,27.37
2018-08-17T14:42:22.530Z,27.23
2018-08-17T14:44:48.854Z,27.34
2018-08-17T14:47:15.186Z,27.43
2018-08-17T14:49:41.527Z,27.46
2018-08-17T14:52:07.808Z,27.41
2018-08-17T14:54:34.125Z,27.42
2018-08-17T14:57:00.433Z,27.35
2018-08-17T14:59:26.743Z,27.31
2018-08-17T15:01:53.056Z,27.42
2018-08-17T15:04:19.365Z,27.58
2018-08-17T15:06:45.721Z,27.68
2018-08-17T15:09:12.037Z,27.68
2018-08-17T15:11:38.343Z,27.56
2018-08-17T15:14:04.651Z,27.51
2018-08-17T15:16:30.961Z,27.42
2018-08-17T15:18:57.272Z,27.43
2018-08-17T15:21:23.584Z,27.46
2018-08-17T15:23:49.896Z,27.49
2018-08-17T15:26:16.243Z,27.44
2018-08-17T15:28:42.685Z,27.44
2018-08-17T15:31:08.926Z,27.36
2018-08-17T15:33:35.231Z,27.09
2018-08-17T15:36:01.559Z,26.97
2018-08-17T15:38:27.867Z,26.90
2018-08-17T15:40:54.257Z,26.89
2018-08-17T15:43:20.501Z,26.81
2018-08-17T15:45:46.817Z,26.85
2018-08-17T15:48:13.132Z,26.94
2018-08-17T15:50:39.444Z,26.93
2018-08-17T15:53:05.747Z,26.83
2018-08-17T15:55:32.106Z,25.78
2018-08-17T15:57:58.497Z,25.01
2018-08-17T16:00:24.737Z,24.58
2018-08-17T16:02:51.054Z,24.69
2018-08-17T16:05:17.360Z,25.00
2018-08-17T16:07:43.676Z,25.31
2018-08-17T16:10:09.984Z,25.51
2018-08-17T16:12:36.297Z,25.66
2018-08-17T16:15:02.611Z,25.76
2018-08-17T16:17:28.927Z,25.87
2018-08-17T16:19:55.235Z,25.97
2018-08-17T16:22:21.590Z,26.05
2018-08-17T16:24:47.986Z,26.07
2018-08-17T16:27:14.223Z,26.08
2018-08-17T16:29:40.530Z,26.12
2018-08-17T16:32:06.841Z,26.15
2018-08-17T16:34:33.150Z,26.17
2018-08-17T16:36:59.460Z,26.22
2018-08-17T16:39:25.770Z,26.19
2018-08-17T16:41:52.136Z,26.19
2018-08-17T16:44:18.446Z,26.19
2018-08-17T16:46:44.754Z,26.19
2018-08-17T16:49:11.099Z,26.23
2018-08-17T16:51:37.405Z,26.29
2018-08-17T16:54:03.721Z,26.33
2018-08-17T16:56:30.033Z,26.37
2018-08-17T16:58:56.447Z,26.32
2018-08-17T17:01:22.693Z,26.30
2018-08-17T17:03:49.008Z,26.32
2018-08-17T17:06:15.320Z,26.38
2018-08-17T17:08:41.654Z,26.35
2018-08-17T17:11:07.965Z,26.36
2018-08-17T17:13:34.267Z,26.36
2018-08-17T17:16:00.582Z,26.39
2018-08-17T17:18:26.896Z,26.37
2018-08-17T17:20:53.318Z,26.33
2018-08-17T17:23:19.548Z,26.33
2018-08-17T17:25:45.868Z,26.31
2018-08-17T17:28:12.182Z,26.28
2018-08-17T17:30:38.494Z,26.26
2018-08-17T17:33:04.798Z,26.25
2018-08-17T17:35:31.108Z,26.23
2018-08-17T17:37:57.419Z,26.21
2018-08-17T17:40:23.727Z,26.17
2018-08-17T17:42:50.038Z,26.15
2018-08-17T17:45:16.350Z,26.17
2018-08-17T17:47:42.656Z,26.20
2018-08-17T17:50:08.973Z,26.19
2018-08-17T17:52:35.279Z,26.18
2018-08-17T17:55:01.593Z,26.15
2018-08-17T17:57:27.931Z,26.13
2018-08-17T17:59:54.280Z,26.09
2018-08-17T18:02:20.587Z,26.08
2018-08-17T18:04:46.959Z,26.06
2018-08-17T18:07:13.213Z,26.01
2018-08-17T18:09:39.590Z,26.00
2018-08-17T18:12:05.895Z,25.98
2018-08-17T18:14:32.226Z,25.99
2018-08-17T18:16:58.542Z,25.99
2018-08-17T18:19:24.851Z,25.99
2018-08-17T18:21:51.177Z,25.99
2018-08-17T18:24:17.487Z,25.97
2018-08-17T18:26:43.812Z,25.91
2018-08-17T18:29:10.115Z,25.82
2018-08-17T18:31:36.423Z,25.80
2018-08-17T18:34:02.735Z,25.80
2018-08-17T18:36:29.112Z,25.82
2018-08-17T18:38:55.393Z,25.76
2018-08-17T18:41:21.703Z,25.64
2018-08-17T18:43:48.009Z,25.55
2018-08-17T18:46:14.341Z,25.59
2018-08-17T18:48:40.643Z,25.57
2018-08-17T18:51:06.957Z,25.54
2018-08-17T18:53:33.276Z,25.56
2018-08-17T18:55:59.583Z,25.53
2018-08-17T18:58:25.888Z,25.60
2018-08-17T19:00:52.205Z,25.59
2018-08-17T19:03:18.531Z,25.60
2018-08-17T19:05:44.844Z,25.53
2018-08-17T19:08:11.171Z,25.48
2018-08-17T19:10:37.497Z,25.50
2018-08-17T19:13:03.803Z,25.42
2018-08-17T19:15:30.137Z,25.43
2018-08-17T19:17:56.423Z,25.32
2018-08-17T19:20:22.730Z,25.36
2018-08-17T19:22:49.054Z,25.35
2018-08-17T19:25:15.371Z,25.34
2018-08-17T19:27:41.676Z,25.35
2018-08-17T19:30:08.038Z,25.40
2018-08-17T19:32:34.348Z,25.32
2018-08-17T19:35:00.674Z,25.30
2018-08-17T19:37:26.982Z,25.31
2018-08-17T19:39:53.309Z,25.30
2018-08-17T19:42:19.615Z,25.34
2018-08-17T19:44:46.794Z,25.35
2018-08-17T19:47:13.105Z,25.35
2018-08-17T19:49:39.432Z,25.23
2018-08-17T19:52:05.745Z,25.13
2018-08-17T19:54:32.065Z,25.11
2018-08-17T19:56:58.383Z,25.00
2018-08-17T19:59:24.907Z,24.97
2018-08-17T20:01:51.221Z,25.06
2018-08-17T20:04:17.543Z,25.10
2018-08-17T20:06:43.859Z,25.14
2018-08-17T20:09:10.187Z,25.23
2018-08-17T20:11:36.491Z,25.26
2018-08-17T20:14:02.800Z,25.22
2018-08-17T20:16:29.106Z,25.21
2018-08-17T20:18:55.411Z,25.15
2018-08-17T20:21:21.717Z,25.09
2018-08-17T20:23:48.027Z,25.14
2018-08-17T20:26:14.367Z,25.28
2018-08-17T20:28:40.648Z,25.29
2018-08-17T20:31:06.957Z,25.23
2018-08-17T20:33:33.264Z,25.07
2018-08-17T20:35:59.575Z,24.98
2018-08-17T20:38:25.896Z,24.93
2018-08-17T20:40:52.219Z,24.90
2018-08-17T20:43:18.533Z,24.90
2018-08-17T20:45:44.839Z,24.97
2018-08-17T20:48:11.144Z,24.96
2018-08-17T20:50:37.470Z,24.91
2018-08-17T20:53:03.805Z,24.84
2018-08-17T20:55:30.117Z,24.89
2018-08-17T20:57:56.425Z,24.82
2018-08-17T21:00:22.777Z,24.63
2018-08-17T21:02:49.067Z,24.61
2018-08-17T21:05:15.380Z,24.77
2018-08-17T21:07:41.696Z,25.21
2018-08-17T21:10:08.048Z,25.33
2018-08-17T21:12:34.361Z,25.10
2018-08-17T21:15:00.666Z,24.98
2018-08-17T21:17:26.978Z,24.81
2018-08-17T21:19:53.283Z,24.65
2018-08-17T21:22:19.591Z,24.47
2018-08-17T21:24:45.900Z,24.38
2018-08-17T21:27:12.212Z,24.23
2018-08-17T21:29:38.667Z,24.02
2018-08-17T21:32:04.867Z,23.85
2018-08-17T21:34:31.221Z,23.74
2018-08-17T21:36:57.528Z,23.70
2018-08-17T21:39:23.849Z,23.70
2018-08-17T21:41:50.248Z,23.84
2018-08-17T21:44:16.480Z,24.04
2018-08-17T21:46:42.797Z,24.23
2018-08-17T21:49:09.103Z,24.38
2018-08-17T21:51:35.418Z,24.55
2018-08-17T21:54:01.731Z,24.72
2018-08-17T21:56:28.041Z,24.80
2018-08-17T21:58:54.348Z,24.79
2018-08-17T22:01:20.696Z,24.59
2018-08-17T22:03:47.011Z,24.53
2018-08-17T22:06:13.321Z,24.50
2018-08-17T22:08:39.630Z,24.50
2018-08-17T22:11:05.942Z,24.42
2018-08-17T22:13:32.247Z,24.37
2018-08-17T22:15:58.550Z,24.37
2018-08-17T22:18:24.908Z,24.34
2018-08-17T22:20:51.166Z,24.32
2018-08-17T22:23:17.471Z,24.32
2018-08-17T22:25:43.780Z,24.31
2018-08-17T22:28:10.092Z,24.27
2018-08-17T22:30:36.403Z,24.28
2018-08-17T22:33:02.713Z,24.24
2018-08-17T22:35:29.086Z,24.23
2018-08-17T22:37:55.333Z,24.25
2018-08-17T22:40:21.645Z,24.26
2018-08-17T22:42:47.988Z,24.34
2018-08-17T22:45:14.281Z,24.37
2018-08-17T22:47:40.593Z,24.37
2018-08-17T22:50:06.906Z,24.32
2018-08-17T22:52:33.222Z,24.26
2018-08-17T22:54:59.534Z,24.23
2018-08-17T22:57:25.845Z,24.25
2018-08-17T22:59:52.157Z,24.18
2018-08-17T23:02:18.467Z,24.06
2018-08-17T23:04:44.780Z,24.00
2018-08-17T23:07:11.091Z,23.91
2018-08-17T23:09:37.415Z,23.83
2018-08-17T23:12:03.723Z,23.87
2018-08-17T23:14:30.028Z,23.91
2018-08-17T23:16:56.343Z,23.94
2018-08-17T23:19:22.651Z,23.95
2018-08-17T23:21:48.964Z,23.89
2018-08-17T23:24:15.278Z,23.87
2018-08-17T23:26:41.588Z,23.86
2018-08-17T23:29:07.894Z,23.85
2018-08-17T23:31:34.207Z,23.82
2018-08-17T23:34:00.515Z,23.79
2018-08-17T23:36:26.830Z,23.74
2018-08-17T23:38:53.140Z,23.64
2018-08-17T23:41:19.460Z,23.59
2018-08-17T23:43:45.765Z,23.56
2018-08-17T23:46:12.083Z,23.65
2018-08-17T23:48:38.387Z,23.69
2018-08-17T23:51:04.700Z,23.67
2018-08-17T23:53:31.062Z,23.62
2018-08-17T23:55:57.352Z,23.54
2018-08-17T23:58:23.698Z,23.46
